Time;durP1;ratioP1;P1;durP2;ratioP2;P2;SDS_P1;SDS_P2;PMS_P1;PMS_P2;Temp;Humidity;BMP_temperature;BMP_pressure;BME280_temperature;BME280_humidity;BME280_pressure;Samples;Min_cycle;Max_cycle;Signal;HPM_P1;HPM_P2
2022/03/21 00:01:56;;;;;;;16.75;6.37;;;;;;;6.47;26.19;100886.25;4469487;32;20437;-78
2022/03/21 00:04:25;;;;;;;14.27;5.70;;;;;;;6.48;26.34;100888.84;4469999;32;20172;-80
2022/03/21 00:06:50;;;;;;;13.77;5.25;;;;;;;6.46;26.18;100885.38;4469586;32;20164;-79
2022/03/21 00:09:16;;;;;;;12.57;5.40;;;;;;;6.46;25.96;100889.75;4471364;32;20093;-81
2022/03/21 00:11:41;;;;;;;16.00;5.68;;;;;;;6.47;25.78;100887.13;4469434;32;20113;-80
2022/03/21 00:14:10;;;;;;;14.38;5.50;;;;;;;6.50;25.53;100878.38;4456529;32;21624;-78
2022/03/21 00:16:37;;;;;;;15.48;6.28;;;;;;;6.48;25.49;100883.63;4456982;32;20085;-78
2022/03/21 00:19:03;;;;;;;13.10;5.43;;;;;;;6.45;25.66;100888.00;4471486;32;20594;-79
2022/03/21 00:21:28;;;;;;;15.45;5.62;;;;;;;6.53;25.83;100886.25;4471459;32;20109;-79
2022/03/21 00:23:53;;;;;;;14.30;5.40;;;;;;;6.53;25.71;100888.84;4461080;32;20127;-78
2022/03/21 00:26:19;;;;;;;14.00;5.65;;;;;;;6.52;25.68;100883.63;4471560;32;20081;-80
2022/03/21 00:28:44;;;;;;;14.98;5.18;;;;;;;6.50;25.79;100883.63;4466310;32;20142;-79
2022/03/21 00:31:10;;;;;;;14.93;5.53;;;;;;;6.49;25.87;100887.13;4470644;32;20123;-80
2022/03/21 00:33:35;;;;;;;14.57;5.87;;;;;;;6.48;25.92;100881.00;4456841;32;20097;-80
2022/03/21 00:36:01;;;;;;;13.38;5.55;;;;;;;6.46;25.93;100880.16;4470953;32;20128;-79
2022/03/21 00:38:27;;;;;;;14.38;5.90;;;;;;;6.45;25.71;100878.41;4457583;32;20089;-79
2022/03/21 00:40:53;;;;;;;18.00;6.70;;;;;;;6.44;25.90;100875.81;4460467;32;20109;-80
2022/03/21 00:43:22;;;;;;;13.40;5.32;;;;;;;6.39;26.06;100874.94;4469626;32;20432;-81
2022/03/21 00:45:48;;;;;;;14.95;5.82;;;;;;;6.42;25.96;100873.19;4471220;32;20576;-80
2022/03/21 00:48:13;;;;;;;16.35;5.70;;;;;;;6.40;26.02;100867.09;4469675;32;20141;-81
2022/03/21 00:50:39;;;;;;;15.05;5.62;;;;;;;6.43;26.09;100874.03;4456576;32;20217;-80
2022/03/21 00:53:05;;;;;;;15.20;5.80;;;;;;;6.41;26.26;100867.94;4468193;32;20109;-80
2022/03/21 00:55:30;;;;;;;17.00;5.93;;;;;;;6.38;26.32;100866.22;4457239;32;20130;-80
2022/03/21 00:57:57;;;;;;;14.77;5.35;;;;;;;6.35;26.33;100867.97;4471227;32;20412;-81
2022/03/21 01:00:27;;;;;;;12.48;5.00;;;;;;;6.34;26.40;100869.72;4471134;32;20205;-80
2022/03/21 01:02:53;;;;;;;13.45;5.35;;;;;;;6.27;26.37;100868.88;4444473;32;20589;-78
2022/03/21 01:05:19;;;;;;;13.80;5.60;;;;;;;6.30;26.28;100868.00;4457430;32;20111;-79
2022/03/21 01:07:45;;;;;;;14.90;6.05;;;;;;;6.30;26.31;100868.00;4465245;32;20076;-78
2022/03/21 01:10:14;;;;;;;13.40;5.30;;;;;;;6.27;26.76;100861.00;4471088;32;20122;-80
2022/03/21 01:12:40;;;;;;;14.93;6.10;;;;;;;6.28;26.97;100870.63;4469085;32;20403;-78
2022/03/21 01:15:07;;;;;;;13.75;5.70;;;;;;;6.29;26.76;100864.50;4469473;32;20460;-79
2022/03/21 01:17:32;;;;;;;13.95;5.82;;;;;;;6.23;26.64;100867.13;4457151;32;20093;-79
2022/03/21 01:19:58;;;;;;;14.20;6.28;;;;;;;6.26;26.69;100861.91;4470756;32;20112;-80
2022/03/21 01:22:23;;;;;;;13.35;5.57;;;;;;;6.24;26.65;100855.81;4455542;32;20189;-81
2022/03/21 01:24:48;;;;;;;14.73;5.93;;;;;;;6.17;26.68;100861.94;4470332;32;20110;-81
2022/03/21 01:27:14;;;;;;;12.68;4.68;;;;;;;6.15;26.45;100866.31;4457969;32;20377;-80
2022/03/21 01:29:40;;;;;;;14.35;5.47;;;;;;;6.18;26.36;100868.03;4470794;32;20096;-80
2022/03/21 01:32:06;;;;;;;13.05;5.43;;;;;;;6.24;25.96;100865.41;4470692;32;20101;-80
2022/03/21 01:34:31;;;;;;;14.32;5.93;;;;;;;6.15;25.73;100862.81;4470682;32;20104;-81
2022/03/21 01:36:57;;;;;;;13.98;5.53;;;;;;;6.18;25.63;100860.19;4456838;32;20352;-79
2022/03/21 01:39:22;;;;;;;14.87;5.57;;;;;;;6.17;25.45;100856.69;4456724;32;20139;-80
2022/03/21 01:41:49;;;;;;;13.93;5.50;;;;;;;6.21;25.59;100860.19;4455696;32;20379;-79
2022/03/21 01:44:16;;;;;;;14.77;5.50;;;;;;;6.20;25.75;100853.19;4457052;32;20096;-80
2022/03/21 01:46:41;;;;;;;14.50;5.12;;;;;;;6.10;24.77;100858.47;4456810;32;20157;-79
2022/03/21 01:49:08;;;;;;;13.40;5.05;;;;;;;6.17;24.92;100858.44;4458547;32;20144;-79
2022/03/21 01:51:35;;;;;;;14.33;5.97;;;;;;;6.24;24.91;100852.34;4469001;32;20559;-80
2022/03/21 01:56:47;;;;;;;13.40;5.82;;;;;;;6.29;25.15;100848.78;4470867;32;20103;-79
2022/03/21 01:59:13;;;;;;;14.35;5.65;;;;;;;6.32;25.07;100850.53;4466579;32;20155;-79
2022/03/21 02:01:40;;;;;;;15.32;5.53;;;;;;;6.32;24.89;100849.66;4459510;32;20131;-80
2022/03/21 02:04:05;;;;;;;15.15;5.57;;;;;;;6.33;25.27;100840.94;4467195;32;20097;-80
2022/03/21 02:06:31;;;;;;;14.40;5.75;;;;;;;6.36;25.48;100849.66;4468206;32;20119;-80
2022/03/21 02:08:58;;;;;;;13.48;5.10;;;;;;;6.35;25.17;100840.03;4470588;32;20105;-80
2022/03/21 02:11:25;;;;;;;13.35;4.90;;;;;;;6.36;25.42;100836.56;4455155;32;20139;-79
2022/03/21 02:13:56;;;;;;;15.02;5.57;;;;;;;6.33;25.72;100838.31;4468521;32;20089;-80
2022/03/21 02:16:23;;;;;;;12.98;4.95;;;;;;;6.29;25.54;100843.56;4470542;32;20080;-81
2022/03/21 02:18:49;;;;;;;12.00;5.10;;;;;;;6.35;25.19;100842.66;4468894;32;20135;-81
2022/03/21 02:21:23;;;;;;;13.05;4.90;;;;;;;6.30;25.04;100844.44;4468680;32;20077;-81
2022/03/21 02:23:56;;;;;;;15.50;5.72;;;;;;;6.29;24.86;100833.09;4457163;32;20572;-81
2022/03/21 02:26:22;;;;;;;14.07;5.75;;;;;;;6.32;24.83;100834.84;4456578;32;20092;-80
2022/03/21 02:28:48;;;;;;;14.40;5.28;;;;;;;6.33;24.89;100831.31;4441989;32;20135;-80
2022/03/21 02:31:15;;;;;;;15.90;5.60;;;;;;;6.35;24.73;100831.31;4466800;32;20120;-81
2022/03/21 02:33:40;;;;;;;15.27;5.78;;;;;;;6.38;25.21;100821.72;4467182;32;20119;-79
2022/03/21 02:36:06;;;;;;;14.68;5.35;;;;;;;6.38;25.61;100833.94;4456292;32;20088;-81
2022/03/21 02:38:32;;;;;;;13.10;5.10;;;;;;;6.35;26.21;100826.09;4456276;32;20531;-80
2022/03/21 02:40:58;;;;;;;13.52;5.35;;;;;;;6.22;24.51;100830.50;4456850;32;20122;-80
2022/03/21 02:43:23;;;;;;;18.85;5.57;;;;;;;6.36;24.72;100826.09;4469985;32;20180;-80
2022/03/21 02:45:48;;;;;;;12.88;5.10;;;;;;;6.35;24.93;100821.72;4470197;32;20081;-80
2022/03/21 02:48:14;;;;;;;14.73;5.68;;;;;;;6.33;24.75;100818.25;4469788;32;20127;-79
2022/03/21 02:50:52;;;;;;;14.23;6.10;;;;;;;6.30;24.85;100827.00;4462491;32;20139;-81
2022/03/21 02:53:19;;;;;;;14.52;5.47;;;;;;;6.28;24.90;100831.34;4469775;32;20138;-79
2022/03/21 02:55:45;;;;;;;13.88;5.37;;;;;;;6.36;24.58;100833.94;4456018;32;20110;-80
2022/03/21 02:58:10;;;;;;;12.82;5.28;;;;;;;6.36;24.40;100833.09;4451602;32;20101;-81
2022/03/21 03:00:35;;;;;;;15.27;5.62;;;;;;;6.36;24.54;100822.63;4456698;32;20107;-79
2022/03/21 03:03:01;;;;;;;13.98;5.78;;;;;;;6.37;24.86;100827.81;4455460;32;20089;-80
2022/03/21 03:05:26;;;;;;;14.25;5.40;;;;;;;5.99;24.26;100836.69;4457034;32;20119;-79
2022/03/21 03:07:52;;;;;;;15.90;6.25;;;;;;;5.91;23.98;100830.59;4456193;32;20116;-77
2022/03/21 03:10:17;;;;;;;13.70;5.18;;;;;;;6.14;24.16;100833.13;4470667;32;20088;-79
2022/03/21 03:12:42;;;;;;;13.95;6.53;;;;;;;6.22;24.10;100823.53;4453392;32;85447;-80
2022/03/21 03:15:08;;;;;;;13.98;5.60;;;;;;;6.35;23.60;100826.09;4456457;32;20068;-80
2022/03/21 03:17:34;;;;;;;14.27;5.95;;;;;;;6.30;23.33;100828.75;4441054;32;20109;-80
2022/03/21 03:19:59;;;;;;;16.60;5.60;;;;;;;6.41;23.43;100829.56;4454888;32;20097;-78
2022/03/21 03:22:25;;;;;;;13.02;5.50;;;;;;;6.23;23.71;100832.25;4440637;32;20108;-80
2022/03/21 03:24:51;;;;;;;14.63;5.82;;;;;;;6.01;23.92;100837.56;4440746;32;20127;-80
2022/03/21 03:27:17;;;;;;;13.50;5.68;;;;;;;6.19;23.50;100835.75;4456787;32;20181;-80
2022/03/21 03:29:42;;;;;;;15.73;5.62;;;;;;;6.29;23.49;100830.47;4456083;32;20153;-80
2022/03/21 03:32:08;;;;;;;13.70;5.45;;;;;;;6.30;23.59;100831.38;4456190;32;20128;-80
2022/03/21 03:34:34;;;;;;;15.38;6.07;;;;;;;6.23;23.80;100837.50;4470254;32;20157;-80
2022/03/21 03:37:00;;;;;;;15.70;7.57;;;;;;;6.30;23.60;100829.59;4470365;32;20167;-80
2022/03/21 03:39:26;;;;;;;14.35;5.93;;;;;;;6.37;23.65;100838.28;4465860;32;20089;-80
2022/03/21 03:41:51;;;;;;;14.13;6.00;;;;;;;6.36;23.71;100835.69;4440528;32;20133;-80
2022/03/21 03:44:17;;;;;;;14.02;5.65;;;;;;;6.33;23.65;100831.31;4454618;32;20144;-81
2022/03/21 03:46:46;;;;;;;16.05;6.15;;;;;;;5.95;24.19;100840.19;4454700;32;20424;-78
2022/03/21 03:49:12;;;;;;;13.93;5.22;;;;;;;6.00;24.01;100842.78;4440571;32;20361;-80
2022/03/21 03:51:37;;;;;;;14.38;5.45;;;;;;;6.23;23.87;100842.72;4440858;32;20116;-80
2022/03/21 03:54:02;;;;;;;14.98;6.20;;;;;;;6.29;23.94;100842.69;4454431;32;20116;-79
2022/03/21 03:56:28;;;;;;;14.50;6.25;;;;;;;6.29;24.03;100846.16;4454589;32;20100;-79
2022/03/21 03:58:53;;;;;;;14.95;6.03;;;;;;;6.27;24.18;100844.44;4464306;32;20133;-79
2022/03/21 04:01:19;;;;;;;15.98;5.75;;;;;;;6.13;24.17;100848.88;4469754;32;20434;-78
2022/03/21 04:03:47;;;;;;;14.13;5.35;;;;;;;6.24;23.99;100840.09;4455217;32;20127;-79
2022/03/21 04:06:22;;;;;;;17.00;6.55;;;;;;;6.25;24.41;100841.81;4471009;32;20135;-79
2022/03/21 04:08:49;;;;;;;16.15;6.15;;;;;;;6.21;24.84;100847.97;4458000;32;20088;-80
2022/03/21 04:11:15;;;;;;;15.85;6.15;;;;;;;6.21;24.72;100845.34;4458658;32;20127;-79
2022/03/21 04:13:41;;;;;;;14.23;6.03;;;;;;;6.15;24.96;100841.88;4456285;32;20081;-80
2022/03/21 04:16:07;;;;;;;16.60;6.40;;;;;;;6.22;24.88;100847.09;4442162;32;20105;-78
2022/03/21 04:18:33;;;;;;;17.02;6.97;;;;;;;6.16;24.87;100844.50;4456297;32;20131;-80
2022/03/21 04:20:58;;;;;;;16.55;7.75;;;;;;;6.04;25.03;100848.00;4442047;32;20145;-79
2022/03/21 04:23:23;;;;;;;16.30;6.35;;;;;;;6.04;24.54;100848.00;4468949;32;20112;-78
2022/03/21 04:25:49;;;;;;;14.93;6.15;;;;;;;6.16;24.63;100851.47;4471725;32;20088;-80
2022/03/21 04:28:15;;;;;;;15.07;6.40;;;;;;;6.19;24.78;100856.69;4471840;32;20088;-80
2022/03/21 04:30:41;;;;;;;18.75;6.62;;;;;;;5.97;25.04;100853.25;4457476;32;20088;-80
2022/03/21 04:33:10;;;;;;;15.32;6.53;;;;;;;6.01;24.92;100850.66;4457677;32;20453;-77
2022/03/21 04:35:36;;;;;;;17.10;6.97;;;;;;;6.10;25.34;100857.59;4457919;32;20081;-78
2022/03/21 04:38:02;;;;;;;16.37;6.28;;;;;;;6.08;25.23;100860.22;4456079;32;20238;-80
2022/03/21 04:40:27;;;;;;;17.75;6.80;;;;;;;6.12;25.13;100865.44;4442130;32;20101;-80
2022/03/21 04:42:53;;;;;;;13.98;6.32;;;;;;;6.10;25.35;100861.09;4441962;32;20116;-81
2022/03/21 04:45:19;;;;;;;20.33;6.95;;;;;;;6.09;25.48;100861.09;4456239;32;20105;-79
2022/03/21 04:47:45;;;;;;;16.12;6.43;;;;;;;6.08;25.66;100867.19;4453925;32;20117;-80
2022/03/21 04:50:12;;;;;;;14.75;6.30;;;;;;;6.06;25.72;100861.94;4457751;32;20105;-80
2022/03/21 04:52:37;;;;;;;14.90;7.00;;;;;;;6.06;25.22;100861.09;4457532;32;20118;-80
2022/03/21 04:55:03;;;;;;;16.08;6.85;;;;;;;6.08;25.41;100865.47;4471877;32;20096;-79
2022/03/21 04:57:30;;;;;;;15.73;6.82;;;;;;;6.14;25.68;100866.31;4444911;32;20384;-81
2022/03/21 04:59:55;;;;;;;17.50;7.15;;;;;;;6.16;25.71;100875.00;4458648;32;20122;-79
2022/03/21 05:02:21;;;;;;;16.77;7.32;;;;;;;6.12;25.69;100865.44;4456126;32;20115;-80
2022/03/21 05:04:46;;;;;;;16.25;7.07;;;;;;;6.08;24.96;100870.69;4441875;32;20113;-80
2022/03/21 05:07:19;;;;;;;17.75;7.15;;;;;;;6.17;25.12;100879.38;4456077;32;20158;-80
2022/03/21 05:09:45;;;;;;;16.45;7.30;;;;;;;6.18;25.14;100873.25;4456143;32;20089;-80
2022/03/21 05:12:11;;;;;;;19.05;7.47;;;;;;;6.26;25.45;100875.00;4450920;32;20107;-79
2022/03/21 05:14:37;;;;;;;18.08;7.22;;;;;;;6.43;25.66;100869.69;4456462;32;20124;-79
2022/03/21 05:17:03;;;;;;;21.27;7.65;;;;;;;6.59;25.67;100872.25;4456179;32;20097;-80
2022/03/21 05:19:30;;;;;;;18.48;7.53;;;;;;;6.61;25.70;100868.75;4456345;32;20085;-80
2022/03/21 05:21:55;;;;;;;15.95;7.28;;;;;;;6.67;25.82;100863.47;4456057;32;20149;-80
2022/03/21 05:32:33;;;;;;;17.30;7.55;;;;;;;7.06;24.31;100869.34;4439514;32;20104;-80
2022/03/21 05:37:42;;;;;;;15.68;7.47;;;;;;;7.43;24.15;100870.81;4455865;32;20116;-79
2022/03/21 05:42:52;;;;;;;16.75;7.35;;;;;;;7.62;24.05;100864.53;4455935;32;20111;-80
2022/03/21 05:45:20;;;;;;;18.23;7.72;;;;;;;7.72;24.35;100872.31;4455749;32;20089;-79
2022/03/21 05:50:37;;;;;;;17.23;7.93;;;;;;;7.95;23.62;100879.97;4440337;32;20116;-78
2022/03/21 05:53:03;;;;;;;17.45;7.80;;;;;;;7.97;23.79;100876.44;4438921;32;20108;-79
2022/03/21 05:55:32;;;;;;;16.08;7.57;;;;;;;7.97;23.64;100878.19;4440249;32;20082;-79
2022/03/21 05:57:58;;;;;;;18.77;8.05;;;;;;;8.15;22.97;100883.25;4440222;32;20119;-80
2022/03/21 06:00:24;;;;;;;18.05;8.18;;;;;;;8.26;23.39;100880.50;4451577;32;20157;-79
2022/03/21 06:02:51;;;;;;;18.05;8.43;;;;;;;8.33;23.10;100876.06;4444081;32;20109;-80
2022/03/21 06:05:17;;;;;;;18.12;8.25;;;;;;;8.44;22.86;100872.44;4453163;32;20128;-79
2022/03/21 06:07:43;;;;;;;17.33;7.93;;;;;;;8.54;22.77;100880.22;4440348;32;20148;-80
2022/03/21 06:10:08;;;;;;;17.58;8.02;;;;;;;8.53;22.89;100879.34;4446695;32;20081;-81
2022/03/21 06:12:34;;;;;;;18.15;8.43;;;;;;;8.61;22.76;100880.09;4450116;32;20104;-80
2022/03/21 06:14:59;;;;;;;18.35;7.78;;;;;;;8.70;22.53;100894.03;4455268;32;20419;-81
2022/03/21 06:17:25;;;;;;;16.60;7.37;;;;;;;8.73;22.63;100894.84;4454559;32;20116;-79
2022/03/21 06:19:51;;;;;;;19.77;8.98;;;;;;;8.68;22.23;100891.41;4453437;32;20496;-80
2022/03/21 06:22:17;;;;;;;18.08;8.13;;;;;;;8.66;22.01;100895.81;4434146;32;20089;-80
2022/03/21 06:24:42;;;;;;;18.25;8.27;;;;;;;8.47;22.47;100905.69;4465010;32;20187;-79
2022/03/21 06:27:07;;;;;;;19.65;9.00;;;;;;;8.61;22.52;100895.84;4456612;32;20164;-79
2022/03/21 06:29:33;;;;;;;16.40;7.78;;;;;;;8.77;22.69;100893.03;4456066;32;20420;-80
2022/03/21 06:31:58;;;;;;;20.02;8.27;;;;;;;8.89;22.55;100902.53;4470759;32;20085;-80
2022/03/21 06:34:26;;;;;;;18.55;8.38;;;;;;;8.95;23.47;100900.69;4445361;32;20173;-74
2022/03/21 06:36:52;;;;;;;18.20;8.50;;;;;;;9.01;22.32;100904.97;4455519;32;20101;-80
2022/03/21 06:39:18;;;;;;;19.70;9.13;;;;;;;8.92;22.91;100899.84;4428362;32;20148;-80
2022/03/21 06:41:45;;;;;;;17.67;8.30;;;;;;;8.74;23.38;100904.47;4454948;32;20491;-76
2022/03/21 06:44:11;;;;;;;17.23;8.43;;;;;;;8.95;22.67;100907.69;4454757;32;20162;-84
2022/03/21 06:46:37;;;;;;;17.35;8.55;;;;;;;8.95;22.75;100902.44;4452179;32;20108;-80
2022/03/21 06:49:03;;;;;;;20.00;8.63;;;;;;;9.07;22.42;100904.87;4456639;32;20111;-79
2022/03/21 06:51:29;;;;;;;16.87;8.68;;;;;;;9.03;22.56;100906.69;4471012;32;20097;-81
2022/03/21 06:53:54;;;;;;;19.08;8.95;;;;;;;9.17;22.21;100910.88;4470732;32;20448;-79
2022/03/21 06:56:20;;;;;;;18.45;8.75;;;;;;;9.03;22.32;100909.31;4456520;32;20462;-80
2022/03/21 06:58:46;;;;;;;19.12;8.93;;;;;;;9.15;22.25;100915.31;4442450;32;20113;-79
2022/03/21 07:01:11;;;;;;;20.08;9.40;;;;;;;9.10;22.55;100914.47;4440350;32;20089;-80
2022/03/21 07:03:36;;;;;;;19.45;8.57;;;;;;;9.11;23.01;100919.72;4440656;32;20452;-80
2022/03/21 07:06:02;;;;;;;19.48;8.93;;;;;;;9.31;23.10;100924.72;4454774;32;20104;-79
2022/03/21 07:08:30;;;;;;;19.35;8.98;;;;;;;9.31;23.23;100924.72;4454897;32;20073;-80
2022/03/21 07:11:04;;;;;;;17.95;9.13;;;;;;;9.51;22.47;100923.53;4467689;32;20101;-80
2022/03/21 07:13:30;;;;;;;19.70;9.60;;;;;;;9.54;22.38;100921.72;4442726;32;20179;-81
2022/03/21 07:15:56;;;;;;;18.35;9.20;;;;;;;9.50;22.31;100922.63;4470178;32;20096;-80
2022/03/21 07:18:22;;;;;;;21.12;9.95;;;;;;;9.52;22.10;100922.63;4455853;32;20131;-80
2022/03/21 07:20:47;;;;;;;18.12;9.60;;;;;;;9.35;22.32;100918.50;4456057;32;20085;-80
2022/03/21 07:23:12;;;;;;;18.95;9.30;;;;;;;9.47;22.37;100922.72;4455941;32;20355;-80
2022/03/21 07:25:38;;;;;;;21.25;9.30;;;;;;;9.45;22.45;100919.22;4442304;32;20185;-81
2022/03/21 07:28:03;;;;;;;20.17;9.45;;;;;;;9.44;22.65;100923.62;4470001;32;20116;-79
2022/03/21 07:30:29;;;;;;;21.27;8.90;;;;;;;9.59;22.02;100924.28;4455847;32;20115;-80
2022/03/21 07:32:54;;;;;;;18.50;9.70;;;;;;;9.62;22.08;100926.88;4469791;32;20097;-77
2022/03/21 07:35:20;;;;;;;19.20;9.27;;;;;;;9.54;22.10;100921.72;4454760;32;20126;-78
2022/03/21 07:37:50;;;;;;;23.35;10.30;;;;;;;9.68;22.25;100925.88;4455646;32;20468;-79
2022/03/21 07:40:16;;;;;;;20.48;10.10;;;;;;;9.61;22.25;100928.59;4444391;32;20792;-77
2022/03/21 07:42:43;;;;;;;20.37;9.45;;;;;;;9.67;22.24;100926.78;4457159;32;20131;-79
2022/03/21 07:47:57;;;;;;;18.25;9.25;;;;;;;9.62;22.27;100930.34;4444489;32;20157;-77
2022/03/21 07:50:26;;;;;;;20.00;10.18;;;;;;;9.60;22.30;100934.78;4456515;32;20097;-78
2022/03/21 07:52:52;;;;;;;21.65;9.88;;;;;;;9.56;22.34;100932.19;4442868;32;20464;-78
2022/03/21 07:55:18;;;;;;;21.50;10.00;;;;;;;9.34;22.48;100943.06;4458400;32;20172;-79
2022/03/21 07:57:44;;;;;;;20.37;10.15;;;;;;;8.71;22.86;100943.03;4472010;32;20456;-80
2022/03/21 08:00:09;;;;;;;19.90;9.30;;;;;;;9.37;22.83;100937.75;4457894;32;20458;-80
2022/03/21 08:02:37;;;;;;;22.25;10.68;;;;;;;9.50;22.53;100935.78;4472033;32;20459;-79
2022/03/21 08:05:04;;;;;;;22.35;9.27;;;;;;;9.43;22.54;100932.41;4456125;32;20138;-79
2022/03/21 08:07:29;;;;;;;21.98;10.20;;;;;;;9.16;23.23;100944.22;4471184;32;20456;-78
2022/03/21 08:09:55;;;;;;;21.85;9.48;;;;;;;9.45;23.22;100940.28;4431707;32;20127;-78
2022/03/21 08:12:20;;;;;;;23.45;9.68;;;;;;;9.61;23.12;100936.50;4455143;32;20141;-79
2022/03/21 08:14:47;;;;;;;20.95;10.27;;;;;;;9.79;22.56;100937.09;4456386;32;20089;-78
2022/03/21 08:17:13;;;;;;;19.97;9.83;;;;;;;9.72;22.72;100938.09;4442682;32;20088;-78
2022/03/21 08:19:38;;;;;;;20.48;9.95;;;;;;;9.74;23.42;100936.31;4452438;32;20100;-77
2022/03/21 08:22:07;;;;;;;29.00;10.68;;;;;;;9.87;22.92;100929.06;4456880;32;20223;-80
2022/03/21 08:24:35;;;;;;;24.02;10.00;;;;;;;9.82;22.33;100937.91;4470144;32;20160;-78
2022/03/21 08:27:01;;;;;;;24.23;10.10;;;;;;;9.82;22.47;100929.16;4457514;32;20119;-78
2022/03/21 08:29:26;;;;;;;20.17;10.35;;;;;;;9.70;22.66;100924.97;4457499;32;20165;-78
2022/03/21 08:31:52;;;;;;;22.65;10.57;;;;;;;9.91;23.19;100933.38;4457130;32;20122;-78
2022/03/21 08:34:17;;;;;;;21.65;10.63;;;;;;;10.01;22.85;100932.34;4471088;32;20085;-78
2022/03/21 08:36:43;;;;;;;21.40;11.12;;;;;;;9.96;22.70;100921.87;4471234;32;20113;-79
2022/03/21 08:39:10;;;;;;;24.02;10.60;;;;;;;9.93;23.18;100921.06;4471833;32;20103;-78
2022/03/21 08:41:36;;;;;;;25.12;11.40;;;;;;;9.96;22.93;100919.25;4457602;32;20448;-78
2022/03/21 08:44:02;;;;;;;21.52;11.60;;;;;;;9.99;22.92;100926.22;4471638;32;20087;-78
2022/03/21 08:46:27;;;;;;;22.42;11.18;;;;;;;9.76;22.88;100919.59;4471526;32;20131;-78
2022/03/21 09:09:54;;;;;;;20.20;11.20;;;;;;;10.20;23.14;100911.81;4477089;32;20150;-77
2022/03/21 09:15:54;;;;;;;22.70;11.75;;;;;;;10.31;22.89;100903.72;4466943;32;20161;-78
2022/03/21 09:22:15;;;;;;;24.67;11.95;;;;;;;10.28;23.07;100901.13;4467029;32;20115;-79
2022/03/21 09:27:28;;;;;;;21.27;10.77;;;;;;;10.26;22.85;100895.00;4467094;32;20174;-78
2022/03/21 09:33:15;;;;;;;24.35;11.32;;;;;;;10.47;22.83;100893.72;4467030;32;20110;-77
2022/03/21 09:42:28;;;;;;;22.58;11.27;;;;;;;10.47;22.82;100891.09;4467116;32;20173;-77
2022/03/21 09:51:39;;;;;;;22.77;10.77;;;;;;;10.57;21.93;100890.03;4486990;32;20123;-77
2022/03/21 10:15:30;;;;;;;18.95;9.43;;;;;;;10.80;21.29;100869.31;4456184;32;20505;-79
2022/03/21 10:21:18;;;;;;;21.67;10.35;;;;;;;10.94;20.83;100852.31;4456255;32;20531;-77
2022/03/21 10:29:27;;;;;;;20.10;10.48;;;;;;;11.01;20.54;100844.22;4456161;32;20154;-78
2022/03/21 10:42:09;;;;;;;19.02;9.98;;;;;;;11.39;20.22;100829.22;4438322;32;20150;-78
2022/03/21 10:47:56;;;;;;;20.00;10.00;;;;;;;11.41;20.39;100819.50;4438070;32;20146;-78
2022/03/21 10:53:43;;;;;;;18.67;9.52;;;;;;;11.54;20.14;100808.62;4437993;32;20124;-77
2022/03/21 10:59:06;;;;;;;20.17;10.75;;;;;;;11.83;19.84;100813.13;4438289;32;20112;-77
2022/03/21 11:04:53;;;;;;;;;;;;;;;11.71;19.90;100808.19;4441780;32;20127;-78
2022/03/21 11:10:40;;;;;;;20.77;10.13;;;;;;;11.70;20.47;100796.75;4487274;32;20106;-78
2022/03/21 11:19:51;;;;;;;17.73;9.45;;;;;;;11.95;19.81;100782.91;4465384;32;20123;-78
2022/03/21 11:25:40;;;;;;;17.95;9.43;;;;;;;12.36;19.31;100775.53;4472434;32;20166;-77
2022/03/21 11:48:22;;;;;;;19.25;9.43;;;;;;;12.42;19.37;100745.41;4466536;32;20123;-77
2022/03/21 12:01:09;;;;;;;17.15;8.63;;;;;;;12.45;18.95;100743.53;4437663;32;20537;-83
2022/03/21 12:07:15;;;;;;;17.42;8.52;;;;;;;12.68;19.52;100736.66;4438675;32;20132;-82
2022/03/21 12:13:43;;;;;;;17.58;8.52;;;;;;;12.76;19.23;100719.63;4417096;32;20147;-81
2022/03/21 12:19:44;;;;;;;;;;;;;;;12.64;18.34;100709.47;4407532;32;20131;-82
2022/03/21 12:25:32;;;;;;;18.73;7.68;;;;;;;12.66;18.47;100701.47;4439812;32;20099;-81
2022/03/21 12:33:53;;;;;;;16.35;6.68;;;;;;;12.64;18.02;100683.00;4433103;32;20494;-82
2022/03/21 12:39:40;;;;;;;14.68;6.82;;;;;;;12.78;17.85;100683.41;4455182;32;20123;-80
2022/03/21 12:45:03;;;;;;;15.02;7.22;;;;;;;12.85;17.54;100678.78;4455260;32;20142;-81
2022/03/21 12:50:50;;;;;;;18.17;6.45;;;;;;;12.79;17.70;100668.44;4450845;32;20169;-81
2022/03/21 12:56:26;;;;;;;16.12;7.00;;;;;;;12.84;17.29;100669.12;4451519;32;20462;-81
2022/03/21 13:02:24;;;;;;;14.87;7.05;;;;;;;12.93;17.59;100665.31;4450163;32;20144;-82
2022/03/21 13:14:24;;;;;;;19.27;7.87;;;;;;;13.07;18.14;100648.97;4452039;32;20120;-81
2022/03/21 13:20:15;;;;;;;15.82;8.02;;;;;;;13.18;17.47;100650.31;4450957;32;20146;-81
2022/03/21 13:26:15;;;;;;;17.95;8.40;;;;;;;13.33;17.58;100635.69;4449739;32;20129;-82
2022/03/21 13:35:24;;;;;;;16.58;8.18;;;;;;;13.23;17.08;100622.81;4452280;32;20152;-82
2022/03/21 14:18:26;;;;;;;14.43;6.70;;;;;;;13.42;16.79;100599.22;4423211;32;20175;-82
2022/03/21 14:23:55;;;;;;;14.98;7.03;;;;;;;13.47;16.03;100597.25;4422480;32;20012;-81
2022/03/21 14:35:37;;;;;;;15.10;7.20;;;;;;;13.49;15.66;100579.53;4440803;32;20107;-82
2022/03/21 14:41:25;;;;;;;15.52;7.30;;;;;;;13.43;15.73;100569.19;4440802;32;20431;-83
2022/03/21 14:47:12;;;;;;;14.13;6.70;;;;;;;13.43;15.92;100566.53;4440803;32;20166;-83
2022/03/21 14:53:03;;;;;;;17.48;6.65;;;;;;;13.28;16.12;100566.13;4440558;32;20170;-83
2022/03/21 15:01:46;;;;;;;15.50;7.03;;;;;;;13.38;16.23;100561.41;4455874;32;20501;-83
2022/03/21 15:07:34;;;;;;;17.00;7.18;;;;;;;13.35;16.02;100554.44;4456051;32;20145;-82
2022/03/21 15:52:21;;;;;;;12.75;6.25;;;;;;;13.17;15.51;100531.25;4440214;32;20107;-82
2022/03/21 15:57:56;;;;;;;14.32;6.32;;;;;;;13.11;15.60;100535.00;4440332;32;20527;-82
2022/03/21 16:03:21;;;;;;;16.12;6.45;;;;;;;13.20;15.58;100540.91;4439427;32;20199;-82
2022/03/21 16:09:08;;;;;;;15.20;6.37;;;;;;;13.07;15.75;100541.34;4407254;32;20238;-81
2022/03/21 16:14:56;;;;;;;12.27;5.95;;;;;;;13.06;15.44;100538.75;4407380;32;20554;-82
2022/03/21 16:27:02;;;;;;;13.62;6.00;;;;;;;12.76;15.32;100553.00;4419967;32;20342;-85
2022/03/21 16:42:06;;;;;;;13.80;5.65;;;;;;;12.70;16.19;100555.03;4419746;32;20167;-85
2022/03/21 16:47:29;;;;;;;14.20;6.70;;;;;;;12.67;16.91;100557.75;4439685;32;20173;-85
2022/03/21 16:53:18;;;;;;;13.30;6.18;;;;;;;12.57;17.06;100547.53;4439629;32;20112;-84
2022/03/21 16:58:56;;;;;;;14.38;6.07;;;;;;;12.47;17.15;100555.81;4439582;32;20151;-85
2022/03/21 17:04:19;;;;;;;13.05;6.25;;;;;;;12.36;16.98;100559.69;4439364;32;20170;-85
2022/03/21 17:10:07;;;;;;;14.60;6.40;;;;;;;12.30;17.15;100557.22;4439452;32;20119;-85
2022/03/21 17:15:55;;;;;;;13.95;6.32;;;;;;;12.16;17.24;100548.91;4441234;32;20176;-85
2022/03/21 17:25:11;;;;;;;13.97;6.23;;;;;;;11.98;17.95;100550.38;4456817;32;20153;-83
2022/03/21 17:30:59;;;;;;;15.38;6.68;;;;;;;11.89;18.34;100554.16;4456633;32;20123;-85
2022/03/21 17:36:22;;;;;;;13.98;5.90;;;;;;;11.89;18.18;100554.16;4446672;32;20116;-85
2022/03/21 17:42:10;;;;;;;14.95;6.32;;;;;;;11.66;18.48;100561.91;4441132;32;20132;-85
2022/03/21 17:51:20;;;;;;;15.02;6.68;;;;;;;11.48;18.89;100564.19;4456407;32;20138;-85
2022/03/21 17:56:55;;;;;;;13.62;6.10;;;;;;;11.37;19.02;100566.28;4456557;32;20162;-84
2022/03/21 18:02:44;;;;;;;13.52;6.43;;;;;;;11.28;19.26;100578.00;4454601;32;20146;-85
2022/03/21 18:08:31;;;;;;;15.48;6.70;;;;;;;11.20;19.42;100575.56;4440845;32;20119;-85
2022/03/21 18:14:20;;;;;;;15.18;6.68;;;;;;;11.02;19.46;100590.13;4440932;32;20116;-84
2022/03/21 18:28:50;;;;;;;16.10;6.68;;;;;;;10.85;19.91;100596.75;4456020;32;20204;-82
2022/03/21 18:34:39;;;;;;;15.35;6.47;;;;;;;10.79;20.12;100603.91;4456190;32;20111;-83
2022/03/21 18:40:27;;;;;;;15.95;7.03;;;;;;;10.74;20.32;100603.19;4440370;32;20167;-83
2022/03/21 18:46:33;;;;;;;16.23;6.95;;;;;;;10.68;20.24;100608.62;4449014;32;20111;-82
2022/03/21 18:58:04;;;;;;;16.08;6.65;;;;;;;10.59;20.21;100604.44;4444568;32;20211;-83
2022/03/21 19:03:52;;;;;;;14.98;6.97;;;;;;;10.58;20.10;100620.28;4442409;32;20178;-83
2022/03/21 19:13:02;;;;;;;14.82;7.15;;;;;;;10.53;20.32;100617.78;4445780;32;20115;-85